Hamilton Township, New Jersey
Current Conditions -  °F | °C
As of 3:53 PM on Wednesday 17 Dec 2014 (Local Time) from KTTN Reporting Station
Overcast Overcast  
Wind Chill: 44°   Ceiling: 4000
Heat Index: 49°   Visibility: 10mi
Dew Point: 31°   Wind: 13mph
Humidity: 50%   Direction: 290°WNW
Pressure: 29.88"   Gusts: 25mph
Location:  40.1951°N, 74.7448°W
Report Text: KTTN 172053Z 29011G22KT 10SM OVC040 09/M01 A2988 RMK AO2 SLP115 T00941006 53013
Loading
Personal Weather Stations






























Interactive Weather Map New forecast layout! Learn more

10-Day Weather Forecast

Advertisements
Track Severe Weather on mobile